createdAt,value
2023-04-21T00:03:26.526Z,6.90
2023-04-21T00:07:30.556Z,7.00
2023-04-21T00:11:32.254Z,6.90
2023-04-21T00:15:33.926Z,6.80
2023-04-21T00:19:35.823Z,6.90
2023-04-21T00:23:37.608Z,6.90
2023-04-21T00:27:39.355Z,6.90
2023-04-21T00:31:41.217Z,6.80
2023-04-21T00:35:42.984Z,6.80
2023-04-21T00:39:44.794Z,6.80
2023-04-21T00:44:07.222Z,6.90
2023-04-21T00:48:09.094Z,6.80
2023-04-21T00:52:11.985Z,6.90
2023-04-21T00:56:13.816Z,6.90
2023-04-21T01:00:16.698Z,6.80
2023-04-21T01:04:18.532Z,6.80
2023-04-21T01:08:20.621Z,6.60
2023-04-21T01:12:22.314Z,6.80
2023-04-21T01:16:24.697Z,6.70
2023-04-21T01:20:26.550Z,6.80
2023-04-21T01:24:45.363Z,6.90
2023-04-21T01:28:48.743Z,6.70
2023-04-21T01:32:50.518Z,6.80
2023-04-21T01:36:52.223Z,6.90
2023-04-21T01:40:54.938Z,6.80
2023-04-21T01:44:56.899Z,6.90
2023-04-21T01:48:58.585Z,6.80
2023-04-21T01:53:00.280Z,6.80
2023-04-21T01:57:02.592Z,6.80
2023-04-21T02:01:04.461Z,6.80
2023-04-21T02:05:06.537Z,6.70
2023-04-21T02:09:08.246Z,6.80
2023-04-21T02:13:09.913Z,6.90
2023-04-21T02:17:11.819Z,6.90
2023-04-21T02:21:13.453Z,6.80
2023-04-21T02:25:15.137Z,6.70
2023-04-21T02:29:16.985Z,6.70
2023-04-21T02:33:18.727Z,6.70
2023-04-21T02:37:21.065Z,6.70
2023-04-21T02:41:23.267Z,6.60
2023-04-21T02:45:25.496Z,6.70
2023-04-21T02:49:27.188Z,6.70
2023-04-21T02:53:28.996Z,6.60
2023-04-21T02:57:30.705Z,6.70
2023-04-21T03:01:32.361Z,6.70
2023-04-21T03:05:34.107Z,6.60
2023-04-21T03:09:35.959Z,6.60
2023-04-21T03:13:37.657Z,6.50
2023-04-21T03:17:39.534Z,6.40
2023-04-21T03:21:41.215Z,6.30
2023-04-21T03:25:43.131Z,6.40
2023-04-21T03:29:44.926Z,6.30
2023-04-21T03:33:46.592Z,6.30
2023-04-21T03:37:49.714Z,6.20
2023-04-21T03:41:51.357Z,6.30
2023-04-21T03:45:53.453Z,6.30
2023-04-21T03:49:55.139Z,6.10
2023-04-21T03:53:56.805Z,6.20
2023-04-21T03:57:58.514Z,6.10
2023-04-21T04:02:00.352Z,5.90
2023-04-21T04:06:04.033Z,6.00
2023-04-21T04:10:06.068Z,5.90
2023-04-21T04:14:08.847Z,5.80
2023-04-21T04:18:10.568Z,5.90
2023-04-21T04:22:12.352Z,5.70
2023-04-21T04:26:14.135Z,5.70
2023-04-21T04:30:16.663Z,5.70
2023-04-21T04:34:18.702Z,5.60
2023-04-21T04:38:20.695Z,5.60
2023-04-21T04:42:22.553Z,5.60
2023-04-21T04:46:24.871Z,5.50
2023-04-21T04:50:27.061Z,5.50
2023-04-21T04:54:29.251Z,5.40
2023-04-21T04:58:30.950Z,5.40
2023-04-21T05:02:33.200Z,5.40
2023-04-21T05:06:35.140Z,5.10
2023-04-21T05:10:36.859Z,5.20
2023-04-21T05:14:38.611Z,5.20
2023-04-21T05:18:40.709Z,5.00
2023-04-21T05:22:42.491Z,5.10
2023-04-21T05:26:44.895Z,5.20
2023-04-21T05:30:46.555Z,5.10
2023-04-21T05:34:48.241Z,5.40
2023-04-21T05:38:49.952Z,5.40
2023-04-21T05:42:51.673Z,5.80
2023-04-21T05:46:53.367Z,5.90
2023-04-21T05:50:55.836Z,6.00
2023-04-21T05:54:59.686Z,5.90
2023-04-21T05:59:01.492Z,6.20
2023-04-21T06:03:03.553Z,6.50
2023-04-21T06:07:07.105Z,6.40
2023-04-21T06:11:09.106Z,6.50
2023-04-21T06:15:10.966Z,6.50
2023-04-21T06:19:12.692Z,6.80
2023-04-21T06:23:14.584Z,6.90
2023-04-21T06:27:16.729Z,7.00
2023-04-21T06:31:19.797Z,7.00
2023-04-21T06:35:21.905Z,7.30
2023-04-21T06:39:23.799Z,7.40
2023-04-21T06:43:25.608Z,7.50
2023-04-21T06:47:27.739Z,7.20
2023-04-21T06:51:29.619Z,7.60
2023-04-21T06:55:31.397Z,8.20
2023-04-21T06:59:34.475Z,8.20
2023-04-21T07:03:36.569Z,8.30
2023-04-21T07:07:38.474Z,8.40
2023-04-21T07:11:40.450Z,8.00
2023-04-21T07:15:42.196Z,8.30
2023-04-21T07:19:44.015Z,8.70
2023-04-21T07:23:45.779Z,8.80
2023-04-21T07:27:47.584Z,9.00
2023-04-21T07:31:49.542Z,8.80
2023-04-21T07:35:51.311Z,9.10
2023-04-21T07:39:53.030Z,9.30
2023-04-21T07:43:56.167Z,9.50
2023-04-21T07:47:57.850Z,9.50
2023-04-21T07:51:59.604Z,9.80
2023-04-21T07:56:01.442Z,9.90
2023-04-21T08:00:03.561Z,9.90
2023-04-21T08:04:05.645Z,9.70
2023-04-21T08:08:07.801Z,10.20
2023-04-21T08:12:09.587Z,10.20
2023-04-21T08:16:11.672Z,10.50
2023-04-21T08:20:13.916Z,11.00
2023-04-21T08:24:15.719Z,10.90
2023-04-21T08:28:17.483Z,10.80
2023-04-21T08:32:23.522Z,11.10
2023-04-21T08:36:29.586Z,11.50
2023-04-21T08:40:37.889Z,11.60
2023-04-21T08:44:41.554Z,11.20
2023-04-21T08:48:43.290Z,11.30
2023-04-21T08:52:45.061Z,11.40
2023-04-21T08:56:49.247Z,11.40
2023-04-21T09:00:51.284Z,11.50
2023-04-21T09:04:55.248Z,11.60
2023-04-21T09:08:57.492Z,11.50
2023-04-21T09:13:06.799Z,11.70
2023-04-21T09:17:08.578Z,11.80
2023-04-21T09:21:12.813Z,11.80
2023-04-21T09:25:20.352Z,11.70
2023-04-21T09:29:26.207Z,11.90
2023-04-21T09:33:34.408Z,12.00
2023-04-21T09:37:44.313Z,12.50
2023-04-21T09:41:46.581Z,12.80
2023-04-21T09:45:49.806Z,13.00
2023-04-21T09:49:52.359Z,12.80
2023-04-21T09:53:59.692Z,13.00
2023-04-21T09:58:06.637Z,13.00
2023-04-21T10:02:09.771Z,13.20
2023-04-21T10:06:12.187Z,13.20
2023-04-21T10:10:28.532Z,13.10
2023-04-21T10:14:30.313Z,13.30
2023-04-21T10:18:32.085Z,13.60
2023-04-21T10:22:34.686Z,13.80
2023-04-21T10:26:36.393Z,13.80
2023-04-21T10:30:38.208Z,13.80
2023-04-21T10:34:40.596Z,14.00
2023-04-21T10:38:43.698Z,14.20
2023-04-21T10:42:45.410Z,14.30
2023-04-21T10:46:48.697Z,14.40
2023-04-21T10:50:50.593Z,14.30
2023-04-21T10:54:59.524Z,14.50
2023-04-21T10:59:01.293Z,14.50
2023-04-21T11:03:04.612Z,14.70
2023-04-21T11:07:12.256Z,14.40
2023-04-21T11:11:23.969Z,14.60
2023-04-21T11:15:25.890Z,15.00
2023-04-21T11:19:28.011Z,15.20
2023-04-21T11:23:29.989Z,15.30
2023-04-21T11:27:31.807Z,15.20
2023-04-21T11:31:34.048Z,15.20
2023-04-21T11:35:40.822Z,15.20
2023-04-21T11:39:43.916Z,15.40
2023-04-21T11:43:46.556Z,15.60
2023-04-21T11:47:48.849Z,15.50
2023-04-21T11:51:50.678Z,15.50
2023-04-21T11:55:52.489Z,15.50
2023-04-21T11:59:54.637Z,15.90
2023-04-21T12:03:57.037Z,15.70
2023-04-21T12:07:58.851Z,16.00
2023-04-21T12:12:04.530Z,16.10
2023-04-21T12:16:07.367Z,16.20
2023-04-21T12:20:09.632Z,15.60
2023-04-21T12:24:11.440Z,16.00
2023-04-21T12:28:17.151Z,16.20
2023-04-21T12:32:18.944Z,16.50
2023-04-21T12:36:21.318Z,16.50
2023-04-21T12:40:23.156Z,16.60
2023-04-21T12:44:25.788Z,16.80
2023-04-21T12:48:27.644Z,16.80
2023-04-21T12:52:29.300Z,16.60
2023-04-21T12:56:31.658Z,16.90
2023-04-21T13:00:35.813Z,17.10
2023-04-21T13:04:39.164Z,16.70
2023-04-21T13:08:41.001Z,17.40
2023-04-21T13:12:42.711Z,17.30
2023-04-21T13:16:44.486Z,17.10
2023-04-21T13:20:46.987Z,17.30
2023-04-21T13:24:48.710Z,17.30
2023-04-21T13:28:50.661Z,17.60
2023-04-21T13:32:52.549Z,17.50
2023-04-21T13:36:54.895Z,18.40
2023-04-21T13:40:57.343Z,18.40
2023-04-21T13:44:59.242Z,17.50
2023-04-21T13:49:00.984Z,17.30
2023-04-21T13:53:02.638Z,17.00
2023-04-21T13:57:05.340Z,17.20
2023-04-21T14:01:06.928Z,17.40
2023-04-21T14:05:09.098Z,17.70
2023-04-21T14:09:11.902Z,17.60
2023-04-21T14:13:26.857Z,17.80
2023-04-21T14:17:35.229Z,17.40
2023-04-21T14:21:37.028Z,17.30
2023-04-21T14:25:38.740Z,17.10
2023-04-21T14:29:40.804Z,17.00
2023-04-21T14:33:42.461Z,17.30
2023-04-21T14:37:44.154Z,17.00
2023-04-21T14:41:45.965Z,16.60
2023-04-21T14:45:48.409Z,16.50
2023-04-21T14:49:55.020Z,16.40
2023-04-21T14:53:57.006Z,16.50
2023-04-21T14:57:58.863Z,16.30
2023-04-21T15:02:00.993Z,16.20
2023-04-21T15:06:03.921Z,16.20
2023-04-21T15:10:06.627Z,16.30
2023-04-21T15:14:08.403Z,15.20
2023-04-21T15:18:10.405Z,13.60
2023-04-21T15:22:12.640Z,12.70
2023-04-21T15:26:14.401Z,13.00
2023-04-21T15:30:16.259Z,13.80
2023-04-21T15:34:18.120Z,14.20
2023-04-21T15:38:21.133Z,14.30
2023-04-21T15:42:24.200Z,14.30
2023-04-21T15:46:25.933Z,14.70
2023-04-21T15:50:29.996Z,14.70
2023-04-21T15:54:34.171Z,15.20
2023-04-21T15:58:36.526Z,15.10
2023-04-21T16:02:38.859Z,15.40
2023-04-21T16:06:40.759Z,15.80
2023-04-21T16:10:42.516Z,16.00
2023-04-21T16:14:56.026Z,16.40
2023-04-21T16:19:03.354Z,16.80
2023-04-21T16:23:05.244Z,17.20
2023-04-21T16:27:07.001Z,17.50
2023-04-21T16:31:08.748Z,17.40
2023-04-21T16:35:11.383Z,17.70
2023-04-21T16:39:14.479Z,18.20
2023-04-21T16:43:16.456Z,18.50
2023-04-21T16:47:18.245Z,18.50
2023-04-21T16:51:19.986Z,17.90
2023-04-21T16:55:23.053Z,18.20
2023-04-21T16:59:24.762Z,18.10
2023-04-21T17:03:29.070Z,17.40
2023-04-21T17:07:34.610Z,16.90
2023-04-21T17:11:38.167Z,17.00
2023-04-21T17:15:42.016Z,16.60
2023-04-21T17:19:43.732Z,16.30
2023-04-21T17:23:45.706Z,16.00
2023-04-21T17:27:47.772Z,16.10
2023-04-21T17:31:49.574Z,16.40
2023-04-21T17:36:02.562Z,16.50
2023-04-21T17:40:07.363Z,16.40
2023-04-21T17:44:09.071Z,16.20
2023-04-21T17:48:11.015Z,16.20
2023-04-21T17:52:14.156Z,16.10
2023-04-21T17:56:18.840Z,15.80
2023-04-21T18:00:20.676Z,14.80
2023-04-21T18:04:24.726Z,12.80
2023-04-21T18:08:26.854Z,12.50
2023-04-21T18:12:28.534Z,12.20
2023-04-21T18:16:30.531Z,11.90
2023-04-21T18:20:32.678Z,11.70
2023-04-21T18:24:34.861Z,11.80
2023-04-21T18:28:36.705Z,11.70
2023-04-21T18:32:39.886Z,11.80
2023-04-21T18:36:42.951Z,11.90
2023-04-21T18:40:44.706Z,11.60
2023-04-21T18:44:46.969Z,11.50
2023-04-21T18:48:48.640Z,11.50
2023-04-21T18:52:50.291Z,11.40
2023-04-21T18:56:52.009Z,11.30
2023-04-21T19:00:53.717Z,11.30
2023-04-21T19:04:55.479Z,11.30
2023-04-21T19:08:57.658Z,11.10
2023-04-21T19:12:59.331Z,11.20
2023-04-21T19:17:01.112Z,11.10
2023-04-21T19:21:04.459Z,11.10
2023-04-21T19:25:08.030Z,10.80
2023-04-21T19:29:12.210Z,11.00
2023-04-21T19:33:14.024Z,11.10
2023-04-21T19:37:15.909Z,10.80
2023-04-21T19:41:17.559Z,11.00
2023-04-21T19:45:29.192Z,10.90
2023-04-21T19:49:30.892Z,11.00
2023-04-21T19:53:32.574Z,11.10
2023-04-21T19:57:34.392Z,11.00
2023-04-21T20:01:36.664Z,11.10
2023-04-21T20:05:38.396Z,11.00
2023-04-21T20:09:40.438Z,10.70
2023-04-21T20:13:42.372Z,10.80
2023-04-21T20:17:47.274Z,10.50
2023-04-21T20:21:52.361Z,10.30
2023-04-21T20:25:54.088Z,10.00
2023-04-21T20:29:56.489Z,10.30
2023-04-21T20:33:59.509Z,10.50
2023-04-21T20:38:05.565Z,10.60
2023-04-21T20:42:12.994Z,10.60
2023-04-21T20:46:16.849Z,10.70
2023-04-21T20:50:18.698Z,10.80
2023-04-21T20:54:20.477Z,10.70
2023-04-21T20:58:22.374Z,10.50
2023-04-21T21:02:24.465Z,10.40
2023-04-21T21:06:26.540Z,10.40
2023-04-21T21:10:28.259Z,10.50
2023-04-21T21:14:29.892Z,10.40
2023-04-21T21:18:34.542Z,10.30
2023-04-21T21:22:36.364Z,10.30
2023-04-21T21:26:42.712Z,10.40
2023-04-21T21:30:45.268Z,10.30
2023-04-21T21:34:47.131Z,10.30
2023-04-21T21:38:48.803Z,10.20
2023-04-21T21:42:51.428Z,10.20
2023-04-21T21:46:53.112Z,10.20
2023-04-21T21:50:54.841Z,10.30
2023-04-21T21:54:58.287Z,10.20
2023-04-21T21:58:59.954Z,10.10
2023-04-21T22:03:01.733Z,10.00
2023-04-21T22:07:03.668Z,10.00
2023-04-21T22:11:05.877Z,9.90
2023-04-21T22:15:15.033Z,10.00
2023-04-21T22:19:20.238Z,10.20
2023-04-21T22:23:21.940Z,10.20
2023-04-21T22:27:23.599Z,10.20
2023-04-21T22:31:25.603Z,10.20
2023-04-21T22:35:27.402Z,10.30
2023-04-21T22:39:29.204Z,10.20
2023-04-21T22:43:30.984Z,10.20
2023-04-21T22:47:33.421Z,10.20
2023-04-21T22:51:36.231Z,10.20
2023-04-21T22:55:37.979Z,10.10
2023-04-21T22:59:40.104Z,10.20
2023-04-21T23:03:42.187Z,10.10
2023-04-21T23:07:43.925Z,10.10
2023-04-21T23:11:45.641Z,10.10
2023-04-21T23:15:47.373Z,10.20
2023-04-21T23:19:49.076Z,10.20
2023-04-21T23:23:50.922Z,10.30
2023-04-21T23:27:52.669Z,10.20
2023-04-21T23:31:54.488Z,10.20
2023-04-21T23:35:56.275Z,10.10
2023-04-21T23:39:57.963Z,10.10
2023-04-21T23:43:59.743Z,10.10
2023-04-21T23:48:01.430Z,10.10
2023-04-21T23:52:03.217Z,10.20
2023-04-21T23:56:05.347Z,10.20
